Time;durP1;ratioP1;P1;durP2;ratioP2;P2;SDS_P1;SDS_P2;PMS_P1;PMS_P2;Temp;Humidity;BMP_temperature;BMP_pressure;BME280_temperature;BME280_humidity;BME280_pressure;Samples;Min_cycle;Max_cycle;Signal;HPM_P1;HPM_P2
2021/06/03 00:01:09;;;;;;;10.65;8.20;;;;;;;13.41;72.63;100967.61;2910532;81;21022;-68
2021/06/03 00:05:12;;;;;;;11.53;7.78;;;;;;;13.42;72.63;100961.30;2908004;81;21060;-68
2021/06/03 00:09:14;;;;;;;12.73;8.68;;;;;;;13.43;72.66;100958.18;2908051;81;21026;-69
2021/06/03 00:13:19;;;;;;;10.78;7.70;;;;;;;13.45;72.65;100956.70;2907833;81;21038;-68
2021/06/03 00:17:21;;;;;;;11.45;8.50;;;;;;;13.40;72.47;100949.89;2907990;81;21035;-67
2021/06/03 00:21:22;;;;;;;10.58;7.53;;;;;;;13.40;72.58;100957.07;2907545;81;21050;-67
2021/06/03 00:25:25;;;;;;;11.35;7.67;;;;;;;13.42;72.59;100963.13;2908098;80;21034;-68
2021/06/03 00:29:27;;;;;;;15.68;7.58;;;;;;;13.37;72.59;100961.34;2908013;81;21046;-68
2021/06/03 00:33:28;;;;;;;10.38;7.97;;;;;;;13.20;72.83;100962.24;2907857;81;21027;-66
2021/06/03 00:37:30;;;;;;;10.88;8.53;;;;;;;13.03;73.39;100960.11;2907985;81;21030;-67
2021/06/03 00:41:33;;;;;;;12.53;8.90;;;;;;;13.02;73.66;100959.75;2907883;81;21099;-68
2021/06/03 00:45:38;;;;;;;12.37;8.33;;;;;;;12.99;73.54;100954.16;2908127;81;21010;-67
2021/06/03 00:49:41;;;;;;;14.38;8.58;;;;;;;12.90;73.55;100959.76;2907722;81;21021;-67
2021/06/03 00:53:43;;;;;;;11.97;9.00;;;;;;;12.84;73.81;100958.42;2907807;81;21007;-68
2021/06/03 00:57:45;;;;;;;11.15;8.05;;;;;;;12.85;73.79;100953.95;2908108;81;21022;-68
2021/06/03 01:01:47;;;;;;;19.30;10.55;;;;;;;12.86;73.93;100955.14;2915026;81;21042;-67
2021/06/03 01:06:00;;;;;;;10.63;7.15;;;;;;;12.82;74.20;100953.70;2892062;81;21038;-67
2021/06/03 01:10:07;;;;;;;11.50;8.28;;;;;;;12.72;74.13;100952.77;2917149;81;21020;-67
2021/06/03 01:14:13;;;;;;;12.10;8.50;;;;;;;12.61;74.71;100954.09;2880312;81;21042;-67
2021/06/03 01:18:17;;;;;;;10.60;9.33;;;;;;;12.57;74.83;100950.81;2867283;83;21073;-68
2021/06/03 01:22:53;;;;;;;12.45;10.23;;;;;;;12.54;74.81;100952.40;2867218;81;21026;-66
2021/06/03 01:27:00;;;;;;;14.03;10.32;;;;;;;12.51;75.12;100961.52;2866985;81;21110;-67
2021/06/03 01:31:03;;;;;;;12.75;9.83;;;;;;;12.40;75.51;100970.38;2896326;82;21003;-66
2021/06/03 01:35:11;;;;;;;19.12;10.90;;;;;;;12.30;76.06;100961.88;2881761;82;21049;-67
2021/06/03 01:39:13;;;;;;;20.97;13.30;;;;;;;12.23;76.37;100962.34;2832993;84;21107;-66
2021/06/03 01:43:17;;;;;;;19.57;12.95;;;;;;;12.20;76.62;100970.59;2833391;84;21042;-67
2021/06/03 01:47:20;;;;;;;14.28;9.45;;;;;;;12.17;76.79;100965.50;2833433;84;21033;-66
2021/06/03 01:51:23;;;;;;;15.88;10.45;;;;;;;12.13;76.75;100972.87;2867163;82;21077;-67
2021/06/03 01:55:26;;;;;;;19.48;13.28;;;;;;;12.00;76.87;100972.13;2877910;81;21070;-67
2021/06/03 01:59:28;;;;;;;18.85;11.63;;;;;;;12.04;76.67;100974.08;2916078;81;21528;-68
2021/06/03 02:03:31;;;;;;;20.70;11.03;;;;;;;12.08;76.52;100980.39;2912236;81;20995;-67
2021/06/03 02:07:34;;;;;;;19.65;10.78;;;;;;;12.11;76.14;100978.82;2841049;83;21050;-67
2021/06/03 02:11:42;;;;;;;12.68;9.93;;;;;;;12.05;75.75;100982.44;2907805;81;21026;-66
2021/06/03 02:16:06;;;;;;;12.58;11.28;;;;;;;12.00;75.60;100974.28;2912456;81;21098;-67
2021/06/03 02:20:12;;;;;;;17.05;10.13;;;;;;;11.96;76.18;100978.16;2912706;81;22263;-66
2021/06/03 02:24:15;;;;;;;17.42;9.78;;;;;;;11.91;76.22;100978.14;2912426;81;21030;-65
2021/06/03 02:28:17;;;;;;;13.72;8.25;;;;;;;11.83;76.19;100977.39;2858173;82;21051;-65
2021/06/03 02:32:21;;;;;;;10.23;8.18;;;;;;;11.73;76.78;100976.41;2847668;83;20968;-66
2021/06/03 02:36:22;;;;;;;11.35;8.83;;;;;;;11.61;77.14;100977.69;2806897;83;21090;-65
2021/06/03 02:40:29;;;;;;;10.53;8.58;;;;;;;11.55;77.45;100980.33;2828488;84;21049;-66
2021/06/03 02:44:34;;;;;;;9.78;8.33;;;;;;;11.61;77.66;100982.19;2891408;82;21011;-65
2021/06/03 02:48:36;;;;;;;11.30;8.35;;;;;;;11.66;77.61;100974.69;2891468;82;21046;-64
2021/06/03 02:52:39;;;;;;;12.68;9.18;;;;;;;11.70;77.52;100988.14;2862151;81;21108;-65
2021/06/03 02:56:41;;;;;;;10.32;8.98;;;;;;;11.66;77.71;100990.67;2857753;83;21357;-65
2021/06/03 03:00:44;;;;;;;12.10;8.23;;;;;;;11.55;77.85;100993.65;2858134;83;21027;-64
2021/06/03 03:04:46;;;;;;;11.43;9.25;;;;;;;11.39;78.60;101002.41;2857933;83;21070;-67
2021/06/03 03:08:48;;;;;;;9.90;8.63;;;;;;;11.34;79.44;101000.58;2858051;83;21062;-66
2021/06/03 03:12:51;;;;;;;10.50;8.35;;;;;;;11.28;79.96;101005.87;2858217;83;21034;-66
2021/06/03 03:16:54;;;;;;;14.35;9.48;;;;;;;11.23;80.61;101012.02;2858433;83;21048;-65
2021/06/03 03:20:56;;;;;;;14.93;9.55;;;;;;;11.27;80.84;101007.70;2858384;83;21026;-66
2021/06/03 03:24:57;;;;;;;11.38;9.65;;;;;;;11.35;80.83;101012.47;2858175;81;21074;-65
2021/06/03 03:29:00;;;;;;;13.28;8.65;;;;;;;11.51;80.76;101010.84;2858039;83;21093;-65
2021/06/03 03:33:02;;;;;;;9.90;9.00;;;;;;;11.73;80.21;101015.05;2858300;83;21073;-67
2021/06/03 03:37:06;;;;;;;16.57;11.60;;;;;;;11.91;79.71;101014.13;2858377;83;21058;-65
2021/06/03 03:41:08;;;;;;;16.40;8.55;;;;;;;12.04;78.76;101013.61;2858307;83;21030;-65
2021/06/03 03:45:13;;;;;;;12.45;9.43;;;;;;;12.11;78.43;101010.82;2807510;84;21091;-66
2021/06/03 03:49:15;;;;;;;10.35;8.60;;;;;;;12.22;78.29;101018.50;2858037;83;21058;-66
2021/06/03 03:53:17;;;;;;;15.65;10.10;;;;;;;12.36;78.44;101022.25;2858005;83;21061;-65
2021/06/03 03:57:20;;;;;;;14.63;11.48;;;;;;;12.53;78.17;101032.09;2858037;83;20986;-65
2021/06/03 04:01:23;;;;;;;12.65;10.63;;;;;;;12.67;78.21;101023.86;2858049;83;21070;-66
2021/06/03 04:05:26;;;;;;;13.60;10.82;;;;;;;12.86;78.57;101030.41;2858247;83;21026;-66
2021/06/03 04:09:29;;;;;;;15.23;11.70;;;;;;;13.08;78.00;101027.34;2863327;83;21013;-66
2021/06/03 04:13:31;;;;;;;17.62;11.03;;;;;;;13.50;78.92;101035.52;2858443;83;21612;-66
2021/06/03 04:17:33;;;;;;;12.82;11.38;;;;;;;14.10;79.19;101032.84;2858301;83;21041;-67
2021/06/03 04:21:35;;;;;;;16.50;11.35;;;;;;;15.39;77.16;101025.17;2859292;83;21070;-68
2021/06/03 04:25:37;;;;;;;14.38;10.82;;;;;;;16.62;72.99;101027.30;2859115;82;21085;-68
2021/06/03 04:29:40;;;;;;;10.23;9.23;;;;;;;17.76;70.48;101030.59;2859559;83;20998;-67
2021/06/03 04:33:42;;;;;;;13.40;9.93;;;;;;;18.82;67.27;101034.66;2859349;83;21030;-67
2021/06/03 04:37:47;;;;;;;13.80;9.25;;;;;;;19.67;64.75;101029.67;2859793;83;21058;-67
2021/06/03 04:41:49;;;;;;;10.55;9.48;;;;;;;20.30;59.98;101029.16;2860068;83;21512;-68
2021/06/03 04:45:51;;;;;;;18.70;10.35;;;;;;;20.52;59.63;101024.03;2860166;83;21034;-68
2021/06/03 04:49:52;;;;;;;12.80;10.45;;;;;;;20.93;58.44;101027.96;2864828;83;21022;-67
2021/06/03 04:53:54;;;;;;;12.03;9.38;;;;;;;21.37;57.75;101032.45;2860578;83;20994;-68
2021/06/03 04:57:58;;;;;;;12.98;9.18;;;;;;;21.86;57.17;101039.92;2861681;81;21581;-67
2021/06/03 05:02:00;;;;;;;11.40;9.73;;;;;;;21.77;55.24;101049.97;2914212;81;21046;-67
2021/06/03 05:06:02;;;;;;;11.60;9.38;;;;;;;21.66;56.01;101053.95;2919034;81;20995;-68
2021/06/03 05:10:06;;;;;;;16.15;10.15;;;;;;;21.72;55.61;101051.03;2919436;81;21031;-69
2021/06/03 05:14:08;;;;;;;18.20;10.60;;;;;;;22.04;56.07;101063.95;2919632;81;21014;-66
2021/06/03 05:18:11;;;;;;;16.90;9.85;;;;;;;22.55;56.09;101060.59;2919454;81;21006;-68
2021/06/03 05:22:12;;;;;;;12.18;10.25;;;;;;;23.04;53.76;101060.52;2919983;81;20997;-67
2021/06/03 05:26:15;;;;;;;12.20;9.10;;;;;;;22.95;52.88;101067.09;2920138;80;21086;-69
2021/06/03 05:30:20;;;;;;;10.88;9.78;;;;;;;22.93;54.00;101069.98;2919836;81;21543;-67
2021/06/03 05:34:23;;;;;;;11.60;9.65;;;;;;;23.17;53.32;101056.30;2919958;81;21002;-68
2021/06/03 05:38:25;;;;;;;14.13;10.70;;;;;;;23.14;53.06;101069.72;2891558;81;21038;-68
2021/06/03 05:42:26;;;;;;;12.15;9.28;;;;;;;22.96;53.31;101069.60;2919802;81;21037;-69
2021/06/03 05:46:30;;;;;;;15.85;9.35;;;;;;;22.70;54.08;101067.91;2918934;81;21082;-69
2021/06/03 05:50:32;;;;;;;11.93;9.58;;;;;;;22.59;54.41;101074.11;2919645;81;21038;-68
2021/06/03 05:54:34;;;;;;;10.10;8.73;;;;;;;22.68;54.59;101078.92;2919658;81;21035;-68
2021/06/03 05:58:36;;;;;;;11.57;9.03;;;;;;;22.64;53.74;101081.19;2919948;81;21014;-67
2021/06/03 06:02:47;;;;;;;17.92;9.33;;;;;;;22.49;54.32;101080.33;2913542;81;21058;-68
2021/06/03 06:06:48;;;;;;;12.85;9.45;;;;;;;22.48;54.77;101084.07;2909853;81;20995;-68
2021/06/03 06:10:49;;;;;;;9.83;8.78;;;;;;;22.59;54.51;101088.19;2910217;81;20987;-68
2021/06/03 06:14:51;;;;;;;10.75;9.60;;;;;;;22.56;54.35;101093.45;2910235;81;21054;-69
2021/06/03 06:18:55;;;;;;;12.58;9.60;;;;;;;22.66;54.13;101091.33;2909985;81;21826;-68
2021/06/03 06:22:58;;;;;;;9.03;8.13;;;;;;;22.59;53.84;101087.66;2885685;82;22158;-69
2021/06/03 06:27:03;;;;;;;11.68;9.13;;;;;;;22.59;54.03;101092.25;2909977;81;21058;-69
2021/06/03 06:31:07;;;;;;;11.22;9.55;;;;;;;22.47;53.88;101090.52;2905513;81;21057;-65
2021/06/03 06:35:12;;;;;;;11.18;8.55;;;;;;;22.56;54.98;101100.23;2908833;81;21541;-65
2021/06/03 06:39:17;;;;;;;13.22;8.40;;;;;;;22.77;54.35;101104.08;2859939;83;21023;-65
2021/06/03 06:43:17;;;;;;;9.30;7.20;;;;;;;23.05;53.93;101102.07;2909974;81;21026;-66
2021/06/03 06:47:25;;;;;;;10.35;8.50;;;;;;;23.29;53.34;101110.95;2910587;81;21010;-67
2021/06/03 06:51:27;;;;;;;8.40;7.12;;;;;;;23.50;53.20;101106.09;2910958;81;21034;-67
2021/06/03 06:55:29;;;;;;;15.32;6.60;;;;;;;23.78;52.78;101103.47;2911003;81;21026;-66
2021/06/03 06:59:31;;;;;;;9.95;6.62;;;;;;;23.98;51.50;101112.33;2910998;81;20999;-66
2021/06/03 07:03:32;;;;;;;9.13;6.25;;;;;;;23.88;51.61;101111.30;2918057;81;21046;-66
2021/06/03 07:07:38;;;;;;;10.30;6.33;;;;;;;23.89;52.04;101111.61;2920665;81;21010;-67
2021/06/03 07:11:40;;;;;;;8.58;6.78;;;;;;;24.00;53.23;101108.89;2920897;80;21031;-69
2021/06/03 07:15:42;;;;;;;8.75;6.90;;;;;;;24.19;51.03;101109.30;2921515;81;20975;-69
2021/06/03 07:19:46;;;;;;;14.87;6.12;;;;;;;24.34;50.43;101112.73;2884771;81;21099;-67
2021/06/03 07:23:48;;;;;;;12.13;6.08;;;;;;;24.46;50.63;101109.48;2872247;83;20982;-68
2021/06/03 07:27:52;;;;;;;26.00;22.25;;;;;;;24.53;49.75;101116.66;2907796;80;21003;-66
2021/06/03 07:31:54;;;;;;;12.95;10.78;;;;;;;24.49;49.07;101122.17;2920940;81;21018;-68
2021/06/03 07:35:56;;;;;;;14.23;10.72;;;;;;;24.57;49.17;101119.83;2922620;81;21042;-70
2021/06/03 07:39:58;;;;;;;10.18;8.55;;;;;;;24.52;48.83;101129.08;2923119;81;20987;-71
2021/06/03 07:44:00;;;;;;;8.45;5.60;;;;;;;24.40;48.74;101123.34;2920998;81;21006;-67
2021/06/03 07:48:04;;;;;;;15.35;4.53;;;;;;;24.56;49.00;101133.08;2921122;81;21007;-65
2021/06/03 07:52:08;;;;;;;7.55;4.83;;;;;;;24.63;48.94;101127.19;2921679;81;21026;-65
2021/06/03 07:56:10;;;;;;;6.47;4.95;;;;;;;24.62;48.20;101135.02;2921630;81;21482;-64
2021/06/03 08:00:16;;;;;;;7.15;4.92;;;;;;;24.58;47.71;101131.03;2870905;83;21018;-64
2021/06/03 08:04:20;;;;;;;5.08;4.05;;;;;;;24.59;47.67;101131.34;2912387;81;21082;-66
2021/06/03 08:08:23;;;;;;;5.05;3.42;;;;;;;24.61;46.58;101122.97;2911748;81;21038;-65
2021/06/03 08:12:25;;;;;;;4.35;3.20;;;;;;;24.77;45.67;101127.31;2912176;81;21030;-66
2021/06/03 08:16:36;;;;;;;5.67;4.85;;;;;;;24.90;45.96;101119.20;2859552;83;21014;-65
2021/06/03 08:20:48;;;;;;;7.35;5.05;;;;;;;25.05;45.74;101130.48;2912173;81;21018;-65
2021/06/03 08:24:50;;;;;;;5.20;3.87;;;;;;;25.17;45.83;101130.23;2917221;81;21006;-65
2021/06/03 08:28:53;;;;;;;4.80;3.60;;;;;;;25.38;45.26;101127.08;2917040;80;21121;-65
2021/06/03 08:32:55;;;;;;;6.08;4.30;;;;;;;25.47;44.82;101124.50;2917153;81;21010;-65
2021/06/03 08:36:57;;;;;;;5.83;5.22;;;;;;;25.56;45.26;101127.06;2916705;81;21066;-65
2021/06/03 08:41:01;;;;;;;3.62;3.22;;;;;;;25.45;41.60;101127.92;2917128;81;20967;-64
2021/06/03 08:45:07;;;;;;;3.98;3.52;;;;;;;25.33;42.53;101122.23;2917708;81;20991;-64
2021/06/03 08:49:11;;;;;;;3.92;3.52;;;;;;;25.23;43.63;101125.34;2917773;81;21057;-65
2021/06/03 08:53:14;;;;;;;4.58;3.20;;;;;;;25.29;41.94;101122.84;2917372;81;20967;-65
2021/06/03 08:57:18;;;;;;;4.05;2.65;;;;;;;25.21;41.62;101131.52;2917315;81;21916;-64
2021/06/03 09:01:21;;;;;;;3.47;2.67;;;;;;;25.17;40.90;101132.96;2859727;83;21150;-64
2021/06/03 09:05:22;;;;;;;6.03;2.72;;;;;;;25.07;42.35;101127.89;2845102;83;21529;-63
2021/06/03 09:09:27;;;;;;;4.35;2.17;;;;;;;25.03;43.31;101127.12;2866729;83;21015;-64
2021/06/03 09:13:34;;;;;;;4.47;2.62;;;;;;;24.97;40.56;101118.42;2866220;83;21046;-63
2021/06/03 09:17:47;;;;;;;4.28;2.65;;;;;;;24.85;42.17;101124.92;2866698;82;21038;-64
2021/06/03 09:21:51;;;;;;;3.67;3.00;;;;;;;24.84;41.87;101128.18;2829598;83;21022;-64
2021/06/03 09:25:54;;;;;;;12.00;3.33;;;;;;;24.96;41.79;101124.38;2818210;83;21066;-65
2021/06/03 09:30:01;;;;;;;3.72;2.62;;;;;;;24.89;41.53;101127.05;2818384;84;20995;-63
2021/06/03 09:34:14;;;;;;;3.58;2.92;;;;;;;24.88;42.74;101126.73;2818817;84;20991;-64
2021/06/03 09:38:16;;;;;;;3.15;2.70;;;;;;;24.76;41.04;101121.52;2818681;84;21066;-64
2021/06/03 09:42:21;;;;;;;18.67;4.03;;;;;;;24.76;43.70;101135.13;2818699;84;21060;-63
2021/06/03 09:46:23;;;;;;;5.17;3.25;;;;;;;24.70;42.42;101125.02;2818728;84;21026;-63
2021/06/03 09:50:25;;;;;;;4.05;3.22;;;;;;;24.65;42.11;101125.10;2818559;84;21035;-63
2021/06/03 09:54:28;;;;;;;3.77;2.70;;;;;;;24.62;41.76;101130.95;2819675;84;21090;-65
2021/06/03 09:58:45;;;;;;;4.22;2.67;;;;;;;24.60;41.81;101124.87;2819891;84;21042;-63
2021/06/03 10:02:54;;;;;;;3.50;2.52;;;;;;;24.63;42.76;101123.11;2816660;84;21026;-64
2021/06/03 10:07:01;;;;;;;2.85;2.65;;;;;;;24.81;43.83;101110.91;2812107;84;21066;-65
2021/06/03 10:11:02;;;;;;;8.35;3.35;;;;;;;24.86;41.70;101118.44;2812172;84;21085;-64
2021/06/03 10:15:15;;;;;;;7.22;3.27;;;;;;;24.77;40.47;101115.07;2812177;84;21000;-64
2021/06/03 10:19:24;;;;;;;4.35;2.80;;;;;;;24.78;42.12;101112.13;2811780;84;21054;-66
2021/06/03 10:23:30;;;;;;;9.85;3.42;;;;;;;24.77;40.50;101111.81;2811400;84;21055;-68
2021/06/03 10:27:49;;;;;;;7.30;2.77;;;;;;;24.76;40.42;101105.20;2811667;83;21619;-65
2021/06/03 10:31:51;;;;;;;5.78;3.50;;;;;;;24.67;41.76;101109.95;2812422;84;21038;-64
2021/06/03 10:36:00;;;;;;;4.50;2.65;;;;;;;24.63;41.36;101101.85;2812263;84;21034;-64
2021/06/03 10:40:07;;;;;;;11.73;2.15;;;;;;;24.63;42.45;101105.93;2811704;84;21007;-63
2021/06/03 10:44:10;;;;;;;4.00;3.00;;;;;;;24.68;40.66;101112.45;2811152;84;20999;-63
2021/06/03 10:48:12;;;;;;;4.90;3.17;;;;;;;24.70;43.39;101103.26;2835576;82;20976;-63
2021/06/03 10:52:16;;;;;;;5.28;2.77;;;;;;;24.78;40.67;101104.51;2838429;84;21102;-63
2021/06/03 10:56:26;;;;;;;7.83;3.37;;;;;;;24.72;42.21;101110.70;2837893;83;21702;-63
2021/06/03 11:00:49;;;;;;;9.98;3.15;;;;;;;24.69;41.01;101107.87;2837569;83;21042;-63
2021/06/03 11:04:52;;;;;;;5.13;3.77;;;;;;;24.67;43.16;101102.63;2857122;83;21063;-63
2021/06/03 11:09:02;;;;;;;17.35;10.48;;;;;;;24.74;42.14;101097.73;2862689;83;20979;-63
2021/06/03 11:13:15;;;;;;;14.95;9.40;;;;;;;24.78;42.94;101090.91;2861993;83;21071;-63
2021/06/03 11:17:57;;;;;;;10.00;5.25;;;;;;;24.86;45.16;101087.15;2862397;83;21015;-63
2021/06/03 11:22:07;;;;;;;6.12;3.75;;;;;;;24.91;41.92;101085.52;2862605;83;21059;-63
2021/06/03 11:26:13;;;;;;;5.62;3.72;;;;;;;25.00;41.81;101090.27;2862663;83;21102;-63
2021/06/03 11:30:15;;;;;;;6.00;3.42;;;;;;;24.86;41.51;101083.92;2861527;81;21003;-63
2021/06/03 11:34:22;;;;;;;5.65;4.25;;;;;;;24.76;41.61;101077.48;2866904;82;22163;-63
2021/06/03 11:38:42;;;;;;;5.03;2.65;;;;;;;24.72;42.38;101088.42;2853947;83;21084;-63
2021/06/03 11:43:08;;;;;;;4.92;3.30;;;;;;;24.79;44.67;101072.18;2812610;83;21054;-63
2021/06/03 11:47:10;;;;;;;4.60;4.17;;;;;;;24.84;43.12;101066.97;2770003;86;21101;-64
2021/06/03 11:51:12;;;;;;;3.67;2.62;;;;;;;24.94;43.03;101063.33;2790979;85;21042;-63
2021/06/03 11:55:14;;;;;;;5.55;2.83;;;;;;;24.89;43.64;101063.11;2790264;85;21023;-64
2021/06/03 11:59:18;;;;;;;8.58;3.65;;;;;;;24.97;41.99;101056.66;2767298;85;20994;-63
2021/06/03 12:03:39;;;;;;;7.28;2.67;;;;;;;25.04;41.97;101063.48;2796574;84;21075;-64
2021/06/03 12:07:54;;;;;;;6.80;2.83;;;;;;;25.01;42.22;101059.82;2844303;81;21086;-64
2021/06/03 12:12:05;;;;;;;3.83;2.95;;;;;;;25.04;42.05;101059.41;2917559;81;21078;-66
2021/06/03 12:16:10;;;;;;;3.45;3.15;;;;;;;25.12;42.20;101051.05;2912181;81;21046;-63
2021/06/03 12:20:16;;;;;;;4.47;2.50;;;;;;;25.09;44.09;101052.83;2912570;81;20974;-65
2021/06/03 12:24:18;;;;;;;4.65;3.00;;;;;;;25.09;42.82;101048.74;2860120;83;21066;-64
2021/06/03 12:28:19;;;;;;;6.37;4.03;;;;;;;25.12;42.73;101044.25;2912116;80;21038;-64
2021/06/03 12:32:22;;;;;;;13.80;10.25;;;;;;;25.16;42.97;101037.37;2859891;83;21520;-64
2021/06/03 12:36:26;;;;;;;27.55;13.45;;;;;;;25.33;46.23;101032.89;2893657;81;20996;-64
2021/06/03 12:40:29;;;;;;;5.05;3.30;;;;;;;25.38;42.35;101034.50;2859657;83;21047;-65
2021/06/03 12:44:31;;;;;;;6.60;2.95;;;;;;;25.45;42.81;101025.80;2860385;83;21418;-64
2021/06/03 12:48:34;;;;;;;6.20;3.65;;;;;;;25.45;40.68;101027.17;2860098;83;21031;-65
2021/06/03 12:52:37;;;;;;;8.05;5.33;;;;;;;25.42;40.90;101025.37;2859079;83;21086;-67
2021/06/03 12:56:39;;;;;;;7.15;4.17;;;;;;;25.47;42.72;101017.44;2858381;83;21008;-68
2021/06/03 13:00:43;;;;;;;4.53;3.95;;;;;;;25.52;42.90;101018.50;2858863;83;21011;-66
2021/06/03 13:04:49;;;;;;;7.00;4.60;;;;;;;25.51;41.15;101014.64;2858954;83;21035;-67
2021/06/03 13:08:59;;;;;;;;;;;;;;;25.50;42.49;101012.97;2863802;83;21011;-65
2021/06/03 13:13:06;;;;;;;12.88;5.53;;;;;;;25.43;45.91;101012.92;2911726;81;20137;-68
2021/06/03 13:17:16;;;;;;;3.77;3.40;;;;;;;25.65;43.06;101014.13;2911703;81;21028;-64
2021/06/03 13:21:18;;;;;;;5.45;3.98;;;;;;;25.85;43.08;101016.02;2912241;81;21042;-64
2021/06/03 13:25:21;;;;;;;5.33;3.98;;;;;;;25.81;41.56;101014.23;2912414;81;21048;-64
2021/06/03 13:29:23;;;;;;;4.40;3.25;;;;;;;25.75;41.21;101013.20;2912046;81;21054;-64
2021/06/03 13:33:29;;;;;;;4.87;3.05;;;;;;;25.77;40.86;101008.38;2912070;81;21067;-64
2021/06/03 13:37:42;;;;;;;4.60;3.35;;;;;;;25.90;42.12;100998.50;2912065;81;20971;-64
2021/06/03 13:41:46;;;;;;;35.08;6.58;;;;;;;26.07;42.12;100994.83;2912827;81;21046;-65
2021/06/03 13:45:53;;;;;;;7.28;3.50;;;;;;;26.15;43.00;101001.41;2912438;81;20998;-68
2021/06/03 13:50:17;;;;;;;7.08;4.00;;;;;;;26.14;40.95;100993.44;2912120;81;21002;-67
2021/06/03 13:54:19;;;;;;;5.60;3.98;;;;;;;26.08;42.18;100988.33;2912831;81;20994;-66
2021/06/03 13:58:54;;;;;;;5.30;3.55;;;;;;;26.13;41.55;100994.48;2912988;81;21025;-66
2021/06/03 14:03:09;;;;;;;5.67;3.47;;;;;;;26.03;41.51;100998.50;2912887;81;21011;-66
2021/06/03 14:07:13;;;;;;;4.85;2.80;;;;;;;25.93;41.34;100995.34;2912814;81;21012;-66
2021/06/03 14:11:35;;;;;;;3.62;3.25;;;;;;;25.89;42.08;100993.59;2912568;81;21045;-66
2021/06/03 14:15:39;;;;;;;4.00;3.15;;;;;;;25.91;41.70;100991.49;2909433;81;21032;-66
2021/06/03 14:19:46;;;;;;;10.58;4.37;;;;;;;25.86;42.81;100986.36;2910263;81;21506;-65
2021/06/03 14:23:52;;;;;;;4.47;3.80;;;;;;;25.93;43.02;100981.22;2909092;81;20973;-66
2021/06/03 14:27:56;;;;;;;4.67;2.85;;;;;;;25.99;40.89;100981.41;2909490;81;21606;-65
2021/06/03 14:31:57;;;;;;;6.37;4.17;;;;;;;26.09;41.67;100980.47;2910377;81;21006;-65
2021/06/03 14:36:00;;;;;;;7.62;3.50;;;;;;;26.12;41.34;100975.09;2896558;81;21039;-66
2021/06/03 14:40:04;;;;;;;6.28;2.83;;;;;;;26.17;43.03;100976.17;2871618;81;21026;-65
2021/06/03 14:44:06;;;;;;;22.60;5.97;;;;;;;26.13;42.93;100978.12;2915475;81;20995;-66
2021/06/03 14:48:12;;;;;;;4.42;3.40;;;;;;;26.09;42.57;100979.10;2865912;83;21055;-65
2021/06/03 14:52:13;;;;;;;;;;;;;;;26.04;43.05;100970.19;2866610;83;21007;-64
2021/06/03 14:56:15;;;;;;;4.08;3.27;;;;;;;26.07;42.44;100972.48;2839661;83;20094;-65
2021/06/03 15:00:27;;;;;;;6.22;3.70;;;;;;;26.15;42.78;100971.42;2873651;83;21043;-63
2021/06/03 15:04:29;;;;;;;4.47;3.35;;;;;;;26.19;42.33;100967.79;2873198;83;21042;-63
2021/06/03 15:08:32;;;;;;;7.08;3.33;;;;;;;26.19;41.69;100962.34;2887795;81;21065;-63
2021/06/03 15:12:34;;;;;;;4.28;3.37;;;;;;;26.21;42.28;100973.86;2887819;82;20946;-63
2021/06/03 15:16:40;;;;;;;4.47;3.27;;;;;;;26.07;41.18;100961.59;2917832;81;21042;-63
2021/06/03 15:20:46;;;;;;;3.33;2.70;;;;;;;25.90;43.50;100968.53;2917799;81;20999;-63
2021/06/03 15:24:51;;;;;;;5.40;3.42;;;;;;;25.76;42.41;100960.89;2867359;83;21020;-63
2021/06/03 15:28:53;;;;;;;5.15;3.98;;;;;;;25.59;42.97;100953.69;2865144;82;21046;-64
2021/06/03 15:33:02;;;;;;;13.68;11.60;;;;;;;25.60;42.89;100952.64;2873022;83;21066;-63
2021/06/03 15:37:01;;;;;;;6.17;4.33;;;;;;;25.66;42.81;100944.47;2872256;83;21038;-63
2021/06/03 15:41:02;;;;;;;14.50;8.65;;;;;;;25.73;43.30;100947.70;2887988;82;21072;-63
2021/06/03 15:45:08;;;;;;;3.50;2.87;;;;;;;25.77;43.27;100949.80;2888001;82;21006;-63
2021/06/03 15:49:19;;;;;;;3.72;2.85;;;;;;;25.76;42.87;100938.59;2917568;81;21030;-63
2021/06/03 15:53:23;;;;;;;6.85;3.25;;;;;;;25.75;44.11;100936.92;2917371;81;20979;-62
2021/06/03 15:57:27;;;;;;;3.75;3.37;;;;;;;25.69;43.98;100941.83;2868056;83;21546;-63
2021/06/03 16:01:29;;;;;;;3.30;3.00;;;;;;;25.72;43.81;100937.31;2864800;83;20999;-63
2021/06/03 16:05:31;;;;;;;5.33;3.02;;;;;;;25.67;43.54;100934.39;2915331;81;21030;-61
2021/06/03 16:09:34;;;;;;;4.45;3.60;;;;;;;25.47;44.21;100933.88;2863999;83;21072;-62
2021/06/03 16:13:36;;;;;;;8.43;5.10;;;;;;;25.36;44.27;100935.84;2861517;83;21027;-62
2021/06/03 16:17:38;;;;;;;4.87;3.65;;;;;;;25.30;44.63;100936.16;2913943;81;20960;-64
2021/06/03 16:21:39;;;;;;;5.17;4.28;;;;;;;25.29;45.03;100933.62;2864248;83;21028;-62
2021/06/03 16:25:42;;;;;;;9.75;6.30;;;;;;;25.20;44.79;100932.47;2860933;82;21014;-62
2021/06/03 16:29:45;;;;;;;6.10;3.87;;;;;;;25.13;45.69;100927.52;2912174;81;21035;-64
2021/06/03 16:33:46;;;;;;;5.20;3.92;;;;;;;25.07;45.95;100928.36;2917451;81;20990;-64
2021/06/03 16:38:01;;;;;;;5.12;4.28;;;;;;;25.05;46.10;100933.17;2917280;81;21036;-64
2021/06/03 16:42:04;;;;;;;7.95;5.03;;;;;;;24.94;45.20;100930.54;2917324;81;21540;-63
2021/06/03 16:46:06;;;;;;;3.62;2.85;;;;;;;24.75;45.53;100929.39;2917165;81;21047;-64
2021/06/03 16:50:10;;;;;;;7.10;2.95;;;;;;;24.59;45.93;100938.77;2916972;81;21003;-63
2021/06/03 16:54:12;;;;;;;2.87;2.40;;;;;;;24.55;46.81;100932.88;2899454;81;21002;-63
2021/06/03 16:58:15;;;;;;;6.58;3.22;;;;;;;24.45;46.73;100932.44;2915327;81;21034;-63
2021/06/03 17:02:17;;;;;;;3.35;2.62;;;;;;;24.29;46.61;100937.17;2916930;81;21007;-64
2021/06/03 17:06:19;;;;;;;6.80;3.22;;;;;;;24.12;47.46;100931.73;2920245;81;21050;-63
2021/06/03 17:10:24;;;;;;;8.00;3.58;;;;;;;24.04;48.56;100926.80;2920691;81;21015;-63
2021/06/03 17:14:26;;;;;;;7.10;2.63;;;;;;;23.95;49.12;100930.66;2921167;81;21007;-63
2021/06/03 17:18:28;;;;;;;3.92;2.58;;;;;;;23.84;49.57;100927.16;2921011;81;21030;-63
2021/06/03 17:22:32;;;;;;;3.15;2.77;;;;;;;23.75;50.35;100931.90;2921036;81;21081;-63
2021/06/03 17:26:39;;;;;;;4.92;3.25;;;;;;;23.69;50.09;100932.16;2920735;80;21062;-63
2021/06/03 17:30:42;;;;;;;5.20;3.52;;;;;;;23.65;50.10;100925.45;2920930;81;21031;-63
2021/06/03 17:34:44;;;;;;;7.37;3.37;;;;;;;23.62;50.86;100928.03;2920446;81;21018;-63
2021/06/03 17:38:46;;;;;;;3.90;2.87;;;;;;;23.60;51.14;100922.50;2888457;81;21053;-63
2021/06/03 17:42:48;;;;;;;3.42;2.70;;;;;;;23.53;51.89;100920.55;2869661;83;21020;-62
2021/06/03 17:46:52;;;;;;;5.97;3.25;;;;;;;23.43;52.16;100925.49;2869962;83;21009;-62
2021/06/03 17:50:56;;;;;;;5.95;3.27;;;;;;;23.30;52.39;100933.50;2869927;83;21057;-62
2021/06/03 17:54:58;;;;;;;4.53;3.70;;;;;;;23.13;53.98;100932.37;2906702;81;20994;-62
2021/06/03 17:59:01;;;;;;;3.35;2.85;;;;;;;23.00;54.12;100944.47;2919609;81;29956;-62
2021/06/03 18:03:04;;;;;;;9.65;3.47;;;;;;;22.92;54.41;100945.42;2867352;83;21031;-62
2021/06/03 18:07:07;;;;;;;9.30;4.28;;;;;;;22.83;55.07;100945.52;2910834;81;21053;-62
2021/06/03 18:11:09;;;;;;;3.72;3.05;;;;;;;22.76;56.17;100945.97;2858132;83;20971;-62
2021/06/03 18:15:14;;;;;;;6.65;3.33;;;;;;;22.69;57.06;100945.03;2910675;81;20986;-61
2021/06/03 18:19:17;;;;;;;4.03;3.58;;;;;;;22.59;57.12;100945.86;2858148;83;21046;-61
2021/06/03 18:23:20;;;;;;;5.90;3.92;;;;;;;22.49;56.86;100947.51;2894584;81;21039;-62
2021/06/03 18:27:25;;;;;;;4.67;3.25;;;;;;;22.38;57.08;100953.69;2910359;81;21390;-61
2021/06/03 18:31:27;;;;;;;5.12;3.37;;;;;;;22.24;56.24;100954.55;2910641;81;20983;-62
2021/06/03 18:35:32;;;;;;;4.70;3.25;;;;;;;22.09;55.90;100951.32;2909959;81;21521;-61
2021/06/03 18:39:34;;;;;;;3.20;2.80;;;;;;;21.99;56.54;100951.27;2910295;81;21029;-62
2021/06/03 18:43:37;;;;;;;4.42;3.80;;;;;;;21.84;56.06;100954.79;2910141;81;21032;-61
2021/06/03 18:47:40;;;;;;;5.55;3.47;;;;;;;21.70;56.28;100959.16;2903538;81;20945;-61
2021/06/03 18:51:42;;;;;;;6.42;3.85;;;;;;;21.56;56.81;100962.13;2910523;81;21008;-62